This is the latest recevied weather packets stored in our database for station/object HB9TJR-3. If no packets are shown the sender has not sent any weather packets the latest 10 day(s).
| Time | Temp. | Humidity | Pressure | Rain* | Wind** | Luminosity | Snow |
|---|---|---|---|---|---|---|---|
| 1787667811 | 18.89° C | 73% | 866.5 hPa | 0 mm | - | - | - |
| 1787666851 | 18.89° C | 74% | 866.5 hPa | 0 mm | - | - | - |
| 1787665891 | 18.89° C | 73% | 866.3 hPa | 0 mm | - | - | - |
| 1787663971 | 19.44° C | 71% | 866.1 hPa | 0 mm | - | - | - |
| 1787663011 | 18.89° C | 77% | 866.2 hPa | 0 mm | - | - | - |
| 1787662051 | 18.33° C | 78% | 866.4 hPa | 0 mm | - | - | - |
| 1787661091 | 18.33° C | 78% | 866.4 hPa | 0 mm | - | - | - |
| 1787660131 | 18.89° C | 79% | 866.3 hPa | 0 mm | - | - | - |
| 1787659171 | 17.78° C | 81% | 866.3 hPa | 0 mm | - | - | - |
| 1787658211 | 17.78° C | 82% | 866.4 hPa | 0 mm | - | - | - |
| 1787657251 | 17.78° C | 83% | 866.4 hPa | 0 mm | - | - | - |
| 1787656291 | 17.78° C | 84% | 866.2 hPa | 0 mm | - | - | - |
| 1787655330 | 17.22° C | 89% | 866.2 hPa | 0 mm | - | - | - |
| 1787654371 | 16.67° C | 88% | 866.1 hPa | 0 mm | - | - | - |
| 1787653415 | 17.22° C | 85% | 866.1 hPa | 0 mm | - | - | - |
| 1787653411 | 17.22° C | 85% | 866.1 hPa | 0 mm | - | - | - |
| 1787652454 | 17.78° C | 83% | 866 hPa | 0 mm | - | - | - |
| 1787652451 | 17.78° C | 83% | 866 hPa | 0 mm | - | - | - |
| 1787651494 | 17.22° C | 85% | 866 hPa | 0 mm | - | - | - |
| 1787651490 | 17.22° C | 85% | 866 hPa | 0 mm | - | - | - |
| 1787650573 | 16.67° C | 85% | 865.9 hPa | 0 mm | - | - | - |
| 1787650532 | 16.67° C | 85% | 865.9 hPa | 0 mm | - | - | - |
| 1787649571 | 16.67° C | 87% | 865.8 hPa | 0 mm | - | - | - |
| 1787648614 | 16.11° C | 85% | 865.7 hPa | 0 mm | - | - | - |
| 1787648611 | 16.11° C | 85% | 865.7 hPa | 0 mm | - | - | - |
* Rain latest hour (hover to see other rain measurements)
** Current wind speed in m/s (hover to see current wind gust speed)